LFOH/LEH METAR and TAF weather

Enter ICAO airport designator
Station Type Date Time Source
LFOH METAR 2019/09/21 04:30 UTC NOAA

LFOH 210430Z AUTO 12013KT CAVOK 14/01 Q1013


Station Type Date Time Source
LFOH Decoded METAR 2019/09/21 04:30 UTC NOAA

La Heve, France (LFOH) 49-31N 000-04E 103M
Sep 21, 2019 - 12:30 AM EDT / 2019.09.21 0430 UTC
Wind: from the ESE (120 degrees) at 15 MPH (13 KT):0
Visibility: greater than 7 mile(s):0
Temperature: 57 F (14 C)
Dew Point: 33 F (1 C)
Relative Humidity: 41%
Pressure (altimeter): 29.91 in. Hg (1013 hPa)
ob: LFOH 210430Z AUTO 12013KT CAVOK 14/01 Q1013
cycle: 4

Station Type Date Time Source
LFOH TAF 2019/09/20 18:54 UTC NOAA

TAF TAF LFOH 201800Z 2018/2112 CNL

Example: see airport list